Deerfield Beach, FL (33441)

3:48 PM EST on February 06, 2016 (GMT -0500)
Shorewood ,DEERFIELD Beach,Fl | | Change Station
CLOSE
Current Station
Personal Weather Station
Location: Deerfield Beach, FL
Elevation: 20 ft
Nearby Weather Stations
Active Advisory: Coastal Hazard Statement

Elev 20 ft 26.30 °N, 80.10 °W | Updated 11 minutes ago

Overcast
Overcast
76.8 °F
Feels Like 78 °F
N
4.2
Wind Variable Wind from ESE

Today
High -- | Low -- °F
--% Chance of Precip.
Yesterday
High -- | Low -- °F
Precip. -- in
Pressure 30.04 in
Visibility 10.0 miles
Clouds Few 2000 ft
Heat Index 78 °F
Dew Point 68 °F
Humidity 75%
Rainfall 0.00 in
Snow Depth Not available.
7:02 AM 6:06 PM
Waning Crescent, 4% visible
METAR KPMP 061953Z 08007KT 10SM FEW020 24/20 A3003 RMK AO2 SLP171 T02440200
Pressure 30.04 in
Visibility 10.0 miles
Clouds Few 2000 ft
Heat Index 78 °F
Dew Point 68 °F
Humidity 75%
Rainfall 0.00 in
Snow Depth Not available.
7:02 AM 6:06 PM
Waning Crescent, 4% visible
METAR KPMP 061953Z 08007KT 10SM FEW020 24/20 A3003 RMK AO2 SLP171 T02440200

10-Day Weather Forecast

Almanac

Astronomy

Feb. 06, 2016 Rise Set
Actual Time
Civil Twilight
Nautical Twilight
Astronomical Twilight
Moon
Length of Visible Light
Length of Day
Tomorrow will be .
, % of the Moon is Illuminated

Today's Extremes

State Highs State Lows

Community

WunderPhotos

Upload Photos

1,891,046 photos uploaded!

WunderBlog® & News

Nearby

Air Quality

  Air Quality AQ Index Pollutant
Not available.

Snow Depth

Station Depth Elevation

Earthquake Activity

City Distance Mag. Time & Date
Minimum magnitude displayed is 2.5.

Coastal Water Temperatures

Place Temperature

Stations

Nearby Weather Stations

Station Location Temp. Windchill Dew Point Humidity Wind Precip. Elev Updated Type
                   

Watches & Warnings

Coastal Hazard Statement
Issued: 4:22 PM EST Feb. 5, 2016 – National Weather Service

... High rip current risk remains in effect through Saturday
evening...

* timing... through Saturday evening.

* Impacts... hazardous marine conditions along the Southeast
Florida beaches will result in strong rip currents that are
extremely dangerous for swimmers.

Precautionary/preparedness actions...

There is a high risk of rip currents.

Rip currents are powerful channels of water flowing quickly away
from shore... which occur most often at low spots or breaks in The
Sandbar and in the vicinity of structures such as groins...
jetties and piers. Heed the advice of lifeguards... beach patrol
flags and signs.

If you become caught in a rip current... Yell for help. Remain
calm... do not exhaust yourself and stay afloat while waiting for
help. If you have to swim out of a rip current... swim parallel to
shore and back toward the beach when possible. Do not attempt to
swim directly against a rip current as you will tire quickly.